Time;durP1;ratioP1;P1;durP2;ratioP2;P2;SDS_P1;SDS_P2;PMS_P1;PMS_P2;Temp;Humidity;BMP_temperature;BMP_pressure;BME280_temperature;BME280_humidity;BME280_pressure;Samples;Min_cycle;Max_cycle;Signal;HPM_P1;HPM_P2
2023/07/24 00:02:13;;;;;;;1.65;1.50;;;;;;;21.22;100.00;99610.69;6156550;23;20024;-86
2023/07/24 00:04:38;;;;;;;1.13;0.93;;;;;;;21.18;100.00;99598.16;6147699;23;20017;-86
2023/07/24 00:07:04;;;;;;;1.65;1.33;;;;;;;21.23;100.00;99609.41;6150808;23;20021;-86
2023/07/24 00:09:30;;;;;;;2.55;1.27;;;;;;;21.17;100.00;99600.22;6151337;23;20040;-86
2023/07/24 00:11:55;;;;;;;0.73;0.73;;;;;;;21.20;100.00;99598.38;6153520;23;20017;-86
2023/07/24 00:14:21;;;;;;;0.75;0.75;;;;;;;21.21;100.00;99595.06;6152146;23;20076;-85
2023/07/24 00:16:46;;;;;;;1.83;1.42;;;;;;;21.13;100.00;99582.78;6152734;23;20806;-86
2023/07/24 00:19:12;;;;;;;0.60;0.60;;;;;;;21.11;100.00;99585.31;6149274;23;20009;-86
2023/07/24 00:21:37;;;;;;;1.92;1.23;;;;;;;21.18;100.00;99598.16;6150252;23;20040;-86
2023/07/24 00:24:21;;;;;;;2.13;1.90;;;;;;;21.18;100.00;99578.41;6152706;23;20039;-86
2023/07/24 00:26:47;;;;;;;2.47;1.50;;;;;;;21.23;100.00;99597.38;6153120;23;20010;-86
2023/07/24 00:29:12;;;;;;;0.63;0.63;;;;;;;21.25;100.00;99601.19;6151960;23;20016;-86
2023/07/24 00:31:38;;;;;;;4.50;1.25;;;;;;;21.20;100.00;99609.66;6151725;23;20394;-86
2023/07/24 00:34:03;;;;;;;0.57;0.57;;;;;;;21.11;100.00;99613.53;6150918;23;20081;-86
2023/07/24 00:36:29;;;;;;;1.38;0.95;;;;;;;21.02;100.00;99619.47;6174529;23;20022;-86
2023/07/24 00:38:54;;;;;;;3.10;1.40;;;;;;;21.03;100.00;99615.34;6150092;23;20020;-86
2023/07/24 00:41:20;;;;;;;0.98;0.98;;;;;;;20.95;100.00;99617.19;6150645;23;20013;-86
2023/07/24 00:43:46;;;;;;;0.77;0.70;;;;;;;20.88;100.00;99606.44;6152841;23;20009;-86
2023/07/24 00:46:11;;;;;;;1.73;1.55;;;;;;;20.70;100.00;99590.91;6150442;23;20016;-86
2023/07/24 00:48:38;;;;;;;0.30;0.30;;;;;;;20.80;100.00;99605.47;6174367;23;20019;-86
2023/07/24 00:51:06;;;;;;;1.48;0.85;;;;;;;20.70;100.00;99595.78;6149536;23;20016;-86
2023/07/24 00:53:33;;;;;;;0.55;0.40;;;;;;;20.79;100.00;99598.28;6151030;23;20005;-86
2023/07/24 00:55:59;;;;;;;1.13;1.08;;;;;;;20.75;100.00;99589.31;6125380;23;20017;-85
2023/07/24 00:58:26;;;;;;;0.95;0.95;;;;;;;20.75;100.00;99606.25;6125585;23;20017;-86
2023/07/24 01:00:52;;;;;;;3.58;2.15;;;;;;;20.76;100.00;99605.72;6124358;23;20434;-85
2023/07/24 01:03:17;;;;;;;0.52;0.52;;;;;;;20.77;100.00;99610.09;6126269;23;20393;-85
2023/07/24 01:05:43;;;;;;;1.42;1.17;;;;;;;20.74;100.00;99607.53;6148309;23;20009;-86
2023/07/24 01:08:08;;;;;;;2.83;1.95;;;;;;;20.67;100.00;99602.41;6175039;23;20039;-86
2023/07/24 01:10:34;;;;;;;1.27;0.50;;;;;;;20.56;100.00;99591.19;6151993;23;20089;-86
2023/07/24 01:13:06;;;;;;;0.95;0.88;;;;;;;20.60;100.00;99592.47;6176266;23;20025;-86
2023/07/24 01:15:32;;;;;;;1.38;1.20;;;;;;;20.60;100.00;99605.78;6150335;23;20389;-86
2023/07/24 01:18:06;;;;;;;1.58;1.48;;;;;;;20.57;100.00;99596.31;6150693;23;20318;-86
2023/07/24 01:20:35;;;;;;;2.28;1.38;;;;;;;20.59;100.00;99593.72;6124210;23;20009;-86
2023/07/24 01:23:20;;;;;;;2.70;1.95;;;;;;;20.54;100.00;99571.22;6151348;23;20480;-86
2023/07/24 01:26:00;;;;;;;0.88;0.82;;;;;;;20.51;100.00;99600.41;6152322;23;20009;-86
2023/07/24 01:28:26;;;;;;;1.00;0.90;;;;;;;20.46;100.00;99599.91;6151356;23;20378;-86
2023/07/24 01:30:52;;;;;;;0.52;0.50;;;;;;;20.37;100.00;99593.81;6125204;23;20085;-86
2023/07/24 01:33:18;;;;;;;3.35;1.90;;;;;;;20.30;100.00;99595.06;6151640;23;20382;-86
2023/07/24 01:35:51;;;;;;;1.30;1.20;;;;;;;20.26;100.00;99586.09;6124509;23;20020;-86
2023/07/24 01:38:17;;;;;;;0.85;0.73;;;;;;;20.26;100.00;99579.72;6152602;23;20026;-86
2023/07/24 01:40:44;;;;;;;1.00;0.90;;;;;;;20.16;100.00;99582.03;6150175;23;20036;-85
2023/07/24 01:43:09;;;;;;;1.05;1.00;;;;;;;20.19;100.00;99575.34;6126023;23;20013;-85
2023/07/24 01:45:35;;;;;;;0.68;0.68;;;;;;;20.27;100.00;99576.38;6151608;23;20337;-86
2023/07/24 01:48:03;;;;;;;0.90;0.85;;;;;;;20.22;100.00;99574.31;6150406;23;20072;-85
2023/07/24 01:50:29;;;;;;;1.52;0.82;;;;;;;20.24;100.00;99580.22;6149840;23;20054;-86
2023/07/24 01:52:54;;;;;;;0.40;0.40;;;;;;;20.23;100.00;99581.50;6151496;23;20013;-86
2023/07/24 01:55:20;;;;;;;1.55;0.98;;;;;;;20.18;100.00;99568.19;6150226;23;20024;-86
2023/07/24 01:57:46;;;;;;;1.40;1.15;;;;;;;20.00;100.00;99554.66;6152011;23;20021;-86
2023/07/24 02:00:11;;;;;;;0.30;0.30;;;;;;;20.08;100.00;99560.53;6149902;23;20002;-85
2023/07/24 02:02:37;;;;;;;1.20;1.10;;;;;;;20.08;100.00;99563.34;6174952;23;20017;-86
2023/07/24 02:05:04;;;;;;;0.65;0.65;;;;;;;20.07;100.00;99561.81;6148035;23;20442;-85
2023/07/24 02:07:29;;;;;;;2.20;1.55;;;;;;;19.98;100.00;99560.00;6150498;23;20055;-85
2023/07/24 02:09:55;;;;;;;0.68;0.68;;;;;;;19.97;100.00;99555.69;6175028;23;20434;-86
2023/07/24 02:12:21;;;;;;;0.80;0.80;;;;;;;19.92;100.00;99559.28;6151476;23;20005;-85
2023/07/24 02:14:49;;;;;;;0.80;0.68;;;;;;;19.93;100.00;99561.56;6147587;23;20022;-86
2023/07/24 02:17:15;;;;;;;1.27;1.17;;;;;;;19.91;100.00;99555.69;6151078;23;20033;-86
2023/07/24 02:19:41;;;;;;;1.35;1.10;;;;;;;19.87;100.00;99557.22;6146881;23;20019;-85
2023/07/24 02:22:07;;;;;;;1.38;1.00;;;;;;;19.88;100.00;99553.13;6151815;23;20013;-86
2023/07/24 02:24:34;;;;;;;0.63;0.63;;;;;;;19.93;100.00;99558.00;6150020;23;20033;-85
2023/07/24 02:27:00;;;;;;;2.17;1.98;;;;;;;19.90;100.00;99550.56;6152170;23;20497;-86
2023/07/24 02:29:25;;;;;;;1.05;0.93;;;;;;;19.82;100.00;99550.31;6125341;23;20108;-86
2023/07/24 02:31:54;;;;;;;0.45;0.45;;;;;;;19.91;100.00;99549.28;6125478;23;20319;-85
2023/07/24 02:34:24;;;;;;;1.05;0.70;;;;;;;19.88;100.00;99539.06;6148580;23;20096;-85
2023/07/24 02:36:50;;;;;;;2.15;1.95;;;;;;;19.82;100.00;99518.56;6151867;23;20532;-85
2023/07/24 02:39:15;;;;;;;1.33;1.17;;;;;;;19.89;100.00;99546.22;6150480;23;20014;-85
2023/07/24 02:41:41;;;;;;;0.60;0.60;;;;;;;19.80;100.00;99540.84;6174608;23;20069;-85
2023/07/24 02:44:06;;;;;;;0.68;0.68;;;;;;;19.90;100.00;99553.38;6173683;23;20391;-85
2023/07/24 02:46:33;;;;;;;0.93;0.93;;;;;;;19.92;100.00;99550.81;6148890;23;20020;-85
2023/07/24 02:48:59;;;;;;;0.40;0.40;;;;;;;19.88;100.00;99555.94;6124264;23;20009;-85
2023/07/24 02:51:24;;;;;;;1.67;1.15;;;;;;;19.88;100.00;99550.31;6148378;23;20454;-85
2023/07/24 02:53:49;;;;;;;0.30;0.30;;;;;;;19.80;100.00;99540.84;6148963;23;20092;-85
2023/07/24 02:56:15;;;;;;;5.38;1.23;;;;;;;19.87;100.00;99545.97;6100373;23;20017;-85
2023/07/24 02:58:40;;;;;;;1.75;1.23;;;;;;;19.90;100.00;99553.38;6151200;23;20415;-85
2023/07/24 03:01:07;;;;;;;0.75;0.75;;;;;;;19.91;100.00;99546.47;6150840;23;20148;-85
2023/07/24 03:03:43;;;;;;;0.40;0.40;;;;;;;19.87;100.00;99531.88;6151139;23;20001;-85
2023/07/24 03:06:08;;;;;;;3.00;2.05;;;;;;;19.87;100.00;99537.50;6126081;23;20013;-86
2023/07/24 03:08:34;;;;;;;0.40;0.40;;;;;;;19.83;100.00;99531.38;6154236;23;20456;-85
2023/07/24 03:11:02;;;;;;;0.52;0.43;;;;;;;19.81;100.00;99533.94;6151956;23;20064;-85
2023/07/24 03:13:27;;;;;;;2.60;1.13;;;;;;;19.83;100.00;99539.81;6151869;23;20052;-85
2023/07/24 03:15:54;;;;;;;1.20;1.10;;;;;;;19.77;100.00;99525.00;6125995;23;20030;-85
2023/07/24 03:18:20;;;;;;;0.88;0.88;;;;;;;19.75;100.00;99541.63;6150694;23;20017;-85
2023/07/24 03:20:45;;;;;;;0.77;0.77;;;;;;;19.68;100.00;99530.88;6151252;23;20439;-85
2023/07/24 03:23:11;;;;;;;1.55;0.95;;;;;;;19.67;100.00;99532.16;6175633;23;20140;-85
2023/07/24 03:25:37;;;;;;;7.75;1.75;;;;;;;19.70;100.00;99534.69;6152802;23;20045;-85
2023/07/24 03:28:03;;;;;;;2.70;0.95;;;;;;;19.62;100.00;99521.66;6153931;23;20006;-85
2023/07/24 03:30:29;;;;;;;1.40;1.30;;;;;;;19.65;100.00;99537.53;6152496;23;20056;-87
2023/07/24 03:32:54;;;;;;;0.20;0.20;;;;;;;19.61;100.00;99531.41;6153059;23;20009;-86
2023/07/24 03:35:20;;;;;;;0.50;0.50;;;;;;;19.66;100.00;99534.19;6149756;23;20397;-86
2023/07/24 03:37:45;;;;;;;0.60;0.60;;;;;;;19.67;100.00;99526.53;6152171;23;20438;-86
2023/07/24 03:40:12;;;;;;;3.05;1.42;;;;;;;19.74;100.00;99528.81;6151528;23;20052;-86
2023/07/24 03:42:37;;;;;;;0.65;0.65;;;;;;;19.81;100.00;99531.13;6176190;23;20032;-86
2023/07/24 03:45:04;;;;;;;0.98;0.98;;;;;;;19.81;100.00;99537.53;6152493;23;20010;-86
2023/07/24 03:47:29;;;;;;;1.30;0.95;;;;;;;19.70;100.00;99533.94;6127464;23;20021;-85
2023/07/24 03:49:55;;;;;;;1.23;1.10;;;;;;;19.72;100.00;99537.00;6150971;23;20077;-86
2023/07/24 03:52:20;;;;;;;2.75;1.23;;;;;;;19.76;100.00;99540.34;6152881;23;20018;-86
2023/07/24 03:54:46;;;;;;;0.80;0.57;;;;;;;19.66;100.00;99525.75;6151190;23;20014;-86
2023/07/24 03:57:12;;;;;;;1.52;1.42;;;;;;;19.78;100.00;99546.22;6127437;23;20425;-86
2023/07/24 03:59:37;;;;;;;4.85;1.92;;;;;;;19.69;100.00;99543.69;6150411;23;20021;-86
2023/07/24 04:02:03;;;;;;;1.17;1.08;;;;;;;19.71;100.00;99546.72;6152785;23;20449;-86
2023/07/24 04:04:29;;;;;;;3.13;2.03;;;;;;;19.61;100.00;99543.41;6156630;23;20361;-86
2023/07/24 04:06:54;;;;;;;3.47;2.05;;;;;;;19.54;100.00;99544.69;6156879;23;20017;-86
2023/07/24 04:09:20;;;;;;;1.67;1.58;;;;;;;19.51;100.00;99534.44;6182209;23;20013;-86
2023/07/24 04:11:45;;;;;;;5.30;2.55;;;;;;;19.47;100.00;99533.94;6182260;23;20013;-85
2023/07/24 04:14:11;;;;;;;2.75;1.73;;;;;;;19.48;100.00;99541.09;6156326;23;20437;-85
2023/07/24 04:16:36;;;;;;;1.73;1.15;;;;;;;19.46;100.00;99535.22;6182091;23;20009;-86
2023/07/24 04:19:02;;;;;;;3.67;1.55;;;;;;;19.55;100.00;99545.44;6155401;23;20024;-86
2023/07/24 04:21:28;;;;;;;0.88;0.82;;;;;;;19.52;100.00;99541.63;6154123;23;20398;-85
2023/07/24 04:23:53;;;;;;;1.65;1.13;;;;;;;19.57;100.00;99545.72;6181815;23;20048;-86
2023/07/24 04:26:19;;;;;;;0.88;0.88;;;;;;;19.57;100.00;99540.09;6181977;23;20017;-86
2023/07/24 04:28:44;;;;;;;1.58;1.48;;;;;;;19.54;100.00;99544.69;6181116;23;20012;-86
2023/07/24 04:31:10;;;;;;;1.85;1.13;;;;;;;19.60;100.00;99543.91;6180236;23;20033;-86
2023/07/24 04:33:35;;;;;;;1.30;1.13;;;;;;;19.69;100.00;99533.19;6155169;23;20001;-85
2023/07/24 04:36:01;;;;;;;0.98;0.93;;;;;;;19.74;100.00;99540.06;6178626;23;20017;-86
2023/07/24 04:38:27;;;;;;;1.42;1.33;;;;;;;19.80;100.00;99538.03;6155587;23;20013;-86
2023/07/24 04:40:52;;;;;;;0.68;0.68;;;;;;;19.82;100.00;99532.66;6181786;23;20019;-86
2023/07/24 04:43:18;;;;;;;1.40;1.30;;;;;;;19.95;100.00;99544.16;6181420;23;20026;-86
2023/07/24 04:45:43;;;;;;;2.47;1.50;;;;;;;19.86;100.00;99538.78;6105159;23;20484;-86
2023/07/24 04:48:09;;;;;;;3.20;2.00;;;;;;;19.92;100.00;99539.56;6181382;23;20009;-86
2023/07/24 04:50:35;;;;;;;0.70;0.65;;;;;;;19.96;100.00;99537.25;6153795;23;20016;-85
2023/07/24 04:53:00;;;;;;;3.00;1.45;;;;;;;20.02;100.00;99538.00;6155969;23;20005;-85
2023/07/24 04:55:26;;;;;;;1.42;1.30;;;;;;;20.12;100.00;99544.91;6130429;23;20009;-85
2023/07/24 04:57:51;;;;;;;1.67;1.55;;;;;;;20.19;100.00;99540.78;6156000;23;20013;-85
2023/07/24 05:00:17;;;;;;;1.65;0.98;;;;;;;20.31;100.00;99540.28;6180759;23;20047;-85
2023/07/24 05:02:42;;;;;;;0.65;0.60;;;;;;;20.29;100.00;99540.06;6180792;23;20063;-87
2023/07/24 05:05:08;;;;;;;1.40;1.30;;;;;;;20.22;100.00;99534.91;6146731;23;20486;-86
2023/07/24 05:07:34;;;;;;;1.27;1.25;;;;;;;20.10;100.00;99530.56;6151377;23;20410;-86
2023/07/24 05:09:59;;;;;;;1.95;1.05;;;;;;;20.11;100.00;99529.28;6150932;23;20045;-86
2023/07/24 05:12:25;;;;;;;2.47;1.60;;;;;;;20.20;100.00;99531.84;6149635;23;20101;-86
2023/07/24 05:14:51;;;;;;;2.90;1.10;;;;;;;20.18;100.00;99523.13;6149988;23;20033;-84
2023/07/24 05:17:16;;;;;;;4.18;2.45;;;;;;;20.23;100.00;99532.84;6149810;23;20017;-85
2023/07/24 05:19:42;;;;;;;1.20;1.10;;;;;;;20.22;100.00;99522.88;6149593;23;20021;-85
2023/07/24 05:22:08;;;;;;;1.98;1.55;;;;;;;20.09;100.00;99523.44;6175822;23;20454;-86
2023/07/24 05:24:33;;;;;;;3.20;1.55;;;;;;;20.08;100.00;99519.06;6150472;23;20018;-86
2023/07/24 05:26:59;;;;;;;1.20;1.10;;;;;;;20.15;100.00;99529.78;6152796;23;20017;-86
2023/07/24 05:29:25;;;;;;;1.83;1.38;;;;;;;20.19;100.00;99535.94;6152846;23;20014;-85
2023/07/24 05:31:50;;;;;;;4.07;2.42;;;;;;;20.32;100.00;99544.66;6152231;23;20454;-86
2023/07/24 05:34:16;;;;;;;2.38;1.45;;;;;;;20.55;100.00;99534.06;6149027;23;20013;-85
2023/07/24 05:36:41;;;;;;;0.95;0.88;;;;;;;20.67;100.00;99529.16;6173074;23;20029;-86
2023/07/24 05:39:07;;;;;;;3.38;1.63;;;;;;;20.82;100.00;99521.94;6174565;23;20017;-85
2023/07/24 05:41:32;;;;;;;3.28;1.08;;;;;;;21.04;100.00;99534.34;6149065;23;20442;-86
2023/07/24 05:43:58;;;;;;;0.88;0.88;;;;;;;21.29;100.00;99528.34;6151461;23;20014;-85
2023/07/24 05:46:23;;;;;;;1.02;0.93;;;;;;;21.48;100.00;99528.44;6149997;23;20014;-86
2023/07/24 05:48:49;;;;;;;0.63;0.57;;;;;;;21.70;100.00;99527.53;6149010;23;20009;-86
2023/07/24 05:51:20;;;;;;;1.50;1.23;;;;;;;21.86;100.00;99524.56;6149123;23;20514;-88
2023/07/24 05:53:46;;;;;;;4.32;2.17;;;;;;;22.16;100.00;99546.38;6151465;23;20036;-87
2023/07/24 05:56:11;;;;;;;1.45;1.27;;;;;;;22.40;100.00;99531.50;6151157;23;20441;-87
2023/07/24 05:58:40;;;;;;;1.95;1.02;;;;;;;22.54;100.00;99521.81;6151440;23;20024;-86
2023/07/24 06:01:08;;;;;;;1.58;1.30;;;;;;;22.70;100.00;99526.53;6150822;23;20345;-87
2023/07/24 06:03:33;;;;;;;2.97;1.83;;;;;;;22.88;100.00;99531.44;6150093;23;20016;-86
2023/07/24 06:05:59;;;;;;;0.90;0.90;;;;;;;23.02;100.00;99526.63;6171489;23;20009;-88
2023/07/24 06:08:24;;;;;;;1.67;1.55;;;;;;;23.23;100.00;99522.72;6155140;23;20507;-87
2023/07/24 06:10:50;;;;;;;1.38;0.77;;;;;;;23.47;100.00;99513.38;6179551;23;20040;-87
2023/07/24 06:13:16;;;;;;;1.88;1.50;;;;;;;23.71;100.00;99526.63;6131337;23;20017;-87
2023/07/24 06:15:42;;;;;;;1.73;1.30;;;;;;;23.78;100.00;99525.97;6180496;23;20001;-87
2023/07/24 06:18:08;;;;;;;0.98;0.95;;;;;;;23.83;100.00;99516.63;6155530;23;20020;-87
2023/07/24 06:20:34;;;;;;;1.63;1.42;;;;;;;23.91;100.00;99522.41;6154327;23;20147;-87
2023/07/24 06:22:59;;;;;;;2.10;1.77;;;;;;;24.13;100.00;99517.13;6181861;23;20088;-86
2023/07/24 06:25:25;;;;;;;1.63;1.30;;;;;;;24.33;100.00;99512.16;6182151;23;20021;-87
2023/07/24 06:27:50;;;;;;;1.40;1.30;;;;;;;24.60;100.00;99502.31;6156091;23;20013;-87
2023/07/24 06:30:16;;;;;;;1.23;1.13;;;;;;;24.61;100.00;99501.00;6155023;23;20048;-87
2023/07/24 06:32:41;;;;;;;1.63;1.52;;;;;;;24.84;100.00;99499.22;6153698;23;19997;-86
2023/07/24 06:35:07;;;;;;;7.03;1.80;;;;;;;25.03;100.00;99494.19;6180249;23;20013;-86
2023/07/24 06:37:32;;;;;;;0.65;0.47;;;;;;;25.29;100.00;99484.06;6155712;23;20024;-87
2023/07/24 06:39:58;;;;;;;1.13;0.98;;;;;;;25.50;100.00;99479.16;6156363;23;20005;-87
2023/07/24 06:42:23;;;;;;;1.02;1.00;;;;;;;25.65;100.00;99467.94;6157189;23;20045;-87
2023/07/24 06:44:49;;;;;;;1.85;1.15;;;;;;;25.72;100.00;99481.44;6155663;23;20016;-86
2023/07/24 06:47:14;;;;;;;1.20;1.13;;;;;;;25.96;100.00;99483.91;6182861;23;20008;-87
2023/07/24 06:49:40;;;;;;;2.05;1.17;;;;;;;26.14;100.00;99489.91;6181897;23;20016;-87
2023/07/24 06:52:06;;;;;;;2.65;1.15;;;;;;;26.00;100.00;99492.84;6184031;23;20013;-87
2023/07/24 06:54:31;;;;;;;1.38;1.27;;;;;;;25.90;100.00;99496.75;6182451;23;20396;-87
2023/07/24 06:56:57;;;;;;;1.92;1.30;;;;;;;26.14;100.00;99501.28;6157316;23;20005;-87
2023/07/24 06:59:23;;;;;;;0.47;0.47;;;;;;;26.34;100.00;99497.66;6183401;23;20024;-87
2023/07/24 07:01:48;;;;;;;1.85;1.17;;;;;;;26.29;100.00;99495.72;6156903;23;20012;-87
2023/07/24 07:04:14;;;;;;;5.43;1.23;;;;;;;26.34;100.00;99497.66;6155885;23;20009;-87
2023/07/24 07:06:39;;;;;;;5.50;1.20;;;;;;;26.56;100.00;99501.97;6131718;23;20060;-87
2023/07/24 07:09:06;;;;;;;1.23;1.13;;;;;;;26.60;100.00;99503.13;6156651;23;20020;-88
2023/07/24 07:11:32;;;;;;;1.40;1.30;;;;;;;26.63;100.00;99513.38;6156519;23;20066;-87
2023/07/24 07:13:57;;;;;;;0.55;0.55;;;;;;;26.88;100.00;99511.63;6157671;23;20379;-86
2023/07/24 07:16:23;;;;;;;0.95;0.60;;;;;;;26.85;100.00;99495.66;6155983;23;20564;-87
2023/07/24 07:18:48;;;;;;;0.63;0.63;;;;;;;26.95;100.00;99489.44;6182197;23;20338;-87
2023/07/24 07:21:14;;;;;;;2.17;1.98;;;;;;;27.14;100.00;99498.41;6182131;23;20095;-87
2023/07/24 07:23:39;;;;;;;1.23;1.13;;;;;;;27.26;100.00;99476.81;6183402;23;20530;-87
2023/07/24 07:26:05;;;;;;;1.30;1.05;;;;;;;27.34;100.00;99483.28;6183535;23;20421;-87
2023/07/24 07:28:30;;;;;;;1.58;1.38;;;;;;;27.60;100.00;99482.97;6157284;23;20390;-87
2023/07/24 07:30:56;;;;;;;2.25;1.70;;;;;;;27.79;100.00;99471.94;6182071;23;20013;-87
2023/07/24 07:33:22;;;;;;;0.98;0.80;;;;;;;28.15;100.00;99470.97;6183155;23;20017;-87
2023/07/24 07:35:47;;;;;;;2.03;1.40;;;;;;;28.20;100.00;99475.72;6182015;23;20024;-87
2023/07/24 07:38:13;;;;;;;0.68;0.68;;;;;;;28.02;100.00;99460.53;6182732;23;20001;-87
2023/07/24 07:40:41;;;;;;;1.15;0.70;;;;;;;28.14;100.00;99475.19;6132113;23;20116;-87
2023/07/24 07:43:06;;;;;;;1.85;1.10;;;;;;;28.37;100.00;99478.75;6181730;23;20009;-85
2023/07/24 07:45:32;;;;;;;5.32;1.35;;;;;;;28.44;100.00;99460.84;6182889;23;20028;-86
2023/07/24 07:47:58;;;;;;;0.95;0.88;;;;;;;28.78;100.00;99465.31;6155102;23;20083;-87
2023/07/24 07:50:23;;;;;;;0.88;0.65;;;;;;;29.16;100.00;99477.28;6181704;23;20001;-87
2023/07/24 07:52:52;;;;;;;0.98;0.93;;;;;;;29.30;95.27;99474.97;6183494;23;20013;-87
2023/07/24 07:55:20;;;;;;;2.00;1.13;;;;;;;29.49;94.08;99478.81;6156028;23;20016;-87
2023/07/24 07:57:46;;;;;;;1.50;1.40;;;;;;;29.81;93.24;99471.50;6132109;23;20032;-87
2023/07/24 08:00:12;;;;;;;1.55;1.42;;;;;;;29.96;90.55;99465.72;6182089;23;20017;-87
2023/07/24 08:02:40;;;;;;;1.85;1.45;;;;;;;30.09;78.55;99463.28;6182098;23;20013;-87
2023/07/24 08:05:08;;;;;;;0.80;0.80;;;;;;;30.12;78.80;99460.59;6149809;23;20036;-87
2023/07/24 08:07:33;;;;;;;3.05;1.65;;;;;;;30.25;80.32;99443.13;6152900;23;20072;-87
2023/07/24 08:09:59;;;;;;;1.98;1.35;;;;;;;30.17;71.74;99437.44;6152434;23;20018;-87
2023/07/24 08:12:24;;;;;;;1.42;1.33;;;;;;;30.31;75.88;99441.50;6152711;23;20024;-87
2023/07/24 08:14:50;;;;;;;3.15;1.55;;;;;;;30.51;76.46;99428.91;6151881;23;20376;-87
2023/07/24 08:17:16;;;;;;;2.42;1.65;;;;;;;30.67;72.35;99429.47;6152974;23;20020;-87
2023/07/24 08:19:41;;;;;;;5.38;1.00;;;;;;;30.72;72.49;99427.69;6150765;23;20020;-87
2023/07/24 08:22:07;;;;;;;1.30;1.00;;;;;;;30.87;71.76;99425.38;6151423;23;20093;-86
2023/07/24 08:24:36;;;;;;;1.98;1.77;;;;;;;31.05;71.94;99416.78;6150480;23;20036;-87
2023/07/24 08:27:02;;;;;;;1.48;1.00;;;;;;;31.06;67.15;99421.88;6151845;23;20009;-87
2023/07/24 08:29:27;;;;;;;0.43;0.43;;;;;;;31.03;67.71;99428.81;6152631;23;20425;-87
2023/07/24 08:31:53;;;;;;;1.67;1.45;;;;;;;31.22;66.36;99413.84;6176034;23;20522;-87
2023/07/24 08:34:18;;;;;;;0.77;0.77;;;;;;;31.28;64.00;99406.47;6149467;23;20020;-87
2023/07/24 08:36:44;;;;;;;1.20;0.63;;;;;;;31.11;64.89;99415.13;6152369;23;20441;-87
2023/07/24 08:39:10;;;;;;;1.42;1.33;;;;;;;31.17;64.65;99398.44;6152414;23;20013;-88
2023/07/24 08:41:37;;;;;;;1.40;1.30;;;;;;;31.22;64.21;99408.13;6152887;23;20014;-87
2023/07/24 08:44:04;;;;;;;1.67;1.50;;;;;;;31.48;65.21;99413.03;6153369;23;20037;-87
2023/07/24 08:46:30;;;;;;;3.05;2.22;;;;;;;31.50;61.61;99421.03;6152508;23;20532;-87
2023/07/24 08:48:56;;;;;;;2.42;1.67;;;;;;;31.67;62.21;99435.28;6175437;23;20017;-87
2023/07/24 08:51:22;;;;;;;0.85;0.85;;;;;;;31.88;61.87;99421.16;6151944;23;20012;-87
2023/07/24 08:53:48;;;;;;;1.98;1.77;;;;;;;31.87;60.42;99422.50;6153119;23;20021;-87
2023/07/24 08:56:14;;;;;;;1.73;1.25;;;;;;;32.07;58.23;99421.19;6152936;23;20017;-87
2023/07/24 08:58:40;;;;;;;1.63;1.17;;;;;;;31.90;57.42;99419.22;6152569;23;20020;-87
2023/07/24 09:01:06;;;;;;;1.25;1.15;;;;;;;31.93;57.00;99406.53;6152117;23;20009;-87
2023/07/24 09:03:32;;;;;;;1.38;1.10;;;;;;;32.04;60.14;99419.53;6152394;23;20023;-87
2023/07/24 09:05:58;;;;;;;2.80;2.00;;;;;;;32.11;58.10;99415.03;6149323;23;20075;-87
2023/07/24 09:08:40;;;;;;;2.10;1.55;;;;;;;32.04;57.59;99408.06;6151351;23;20448;-86
2023/07/24 09:11:06;;;;;;;;;;;;;;;32.13;55.65;99407.34;6153906;23;20020;-87
2023/07/24 09:13:32;;;;;;;2.00;1.70;;;;;;;32.31;56.47;99407.97;6152833;23;19912;-87
2023/07/24 09:15:59;;;;;;;1.23;1.05;;;;;;;32.24;59.85;99398.13;6153053;23;20021;-87
2023/07/24 09:18:25;;;;;;;2.80;1.63;;;;;;;32.36;59.31;99395.41;6150775;23;20343;-87
2023/07/24 09:20:50;;;;;;;1.15;1.05;;;;;;;32.42;56.44;99398.72;6149519;23;20048;-88
2023/07/24 09:23:25;;;;;;;1.90;1.35;;;;;;;32.48;58.16;99401.28;6148500;23;20473;-89
2023/07/24 09:25:51;;;;;;;0.73;0.73;;;;;;;32.51;56.20;99385.72;6149631;23;20017;-88
2023/07/24 09:28:17;;;;;;;7.78;2.97;;;;;;;32.20;55.70;99386.34;6173458;23;20513;-89
2023/07/24 09:30:52;;;;;;;1.33;1.23;;;;;;;32.51;52.25;99388.59;6147371;23;20017;-88
2023/07/24 09:33:18;;;;;;;1.77;1.50;;;;;;;32.74;51.07;99378.16;6149713;23;20401;-88
2023/07/24 09:35:43;;;;;;;6.22;2.30;;;;;;;32.93;48.64;99368.72;6119825;23;20012;-88
2023/07/24 09:38:11;;;;;;;1.80;1.33;;;;;;;33.36;50.17;99366.03;6151109;23;20041;-88
2023/07/24 09:40:47;;;;;;;2.22;2.10;;;;;;;33.39;47.49;99356.91;6150426;23;20005;-88
2023/07/24 09:43:27;;;;;;;1.75;1.40;;;;;;;33.16;47.10;99354.59;6151543;23;20373;-88
2023/07/24 09:45:53;;;;;;;3.50;2.15;;;;;;;32.88;48.06;99358.31;6150263;23;20485;-88
2023/07/24 09:48:21;;;;;;;1.25;1.15;;;;;;;32.58;48.14;99353.22;6150598;23;20014;-87
2023/07/24 09:50:49;;;;;;;4.07;2.85;;;;;;;32.54;47.45;99341.44;6147789;23;20060;-87
2023/07/24 09:53:30;;;;;;;1.85;1.75;;;;;;;32.62;46.34;99339.19;6151307;23;20025;-87
2023/07/24 09:56:05;;;;;;;2.65;2.25;;;;;;;32.71;48.12;99344.16;6152537;23;20101;-88
2023/07/24 09:58:34;;;;;;;10.80;2.58;;;;;;;32.94;46.14;99344.38;6152094;23;20045;-87
2023/07/24 10:01:01;;;;;;;1.27;1.17;;;;;;;33.06;46.81;99330.13;6152280;23;20009;-88
2023/07/24 10:03:27;;;;;;;1.90;1.80;;;;;;;33.29;45.35;99339.72;6152160;23;20041;-88
2023/07/24 10:05:53;;;;;;;1.55;1.30;;;;;;;33.43;44.83;99319.06;6175229;23;20024;-88
2023/07/24 10:08:19;;;;;;;1.83;1.67;;;;;;;33.63;44.14;99340.59;6156091;23;20017;-87
2023/07/24 10:10:45;;;;;;;1.80;1.30;;;;;;;33.38;47.02;99323.03;6155545;23;20032;-88
2023/07/24 10:13:14;;;;;;;1.48;1.38;;;;;;;33.60;47.50;99327.44;6181908;23;20013;-88
2023/07/24 10:15:42;;;;;;;1.50;1.40;;;;;;;33.61;46.32;99312.44;6155535;23;20009;-88
2023/07/24 10:18:08;;;;;;;1.50;1.40;;;;;;;33.80;47.52;99323.09;6153753;23;20320;-86
2023/07/24 10:20:35;;;;;;;0.77;0.77;;;;;;;33.89;46.95;99316.47;6179481;23;20001;-87
2023/07/24 10:23:02;;;;;;;2.92;2.28;;;;;;;33.82;46.99;99300.19;6180550;23;20021;-86
2023/07/24 10:25:32;;;;;;;2.63;2.05;;;;;;;33.71;46.96;99300.91;6178342;23;20302;-87
2023/07/24 10:28:17;;;;;;;1.65;1.55;;;;;;;33.83;45.14;99304.59;6153905;23;20298;-86
2023/07/24 10:30:43;;;;;;;1.50;1.40;;;;;;;33.90;43.70;99292.09;6155614;23;20013;-86
2023/07/24 10:33:11;;;;;;;2.17;1.60;;;;;;;34.16;43.44;99307.50;6181971;23;20092;-87
2023/07/24 10:35:45;;;;;;;1.25;1.15;;;;;;;34.32;42.70;99307.81;6154475;23;20032;-87
2023/07/24 10:38:12;;;;;;;2.45;1.77;;;;;;;33.95;43.12;99299.63;6155822;23;20357;-87
2023/07/24 10:40:38;;;;;;;4.20;1.70;;;;;;;33.98;43.94;99309.91;6130834;23;20298;-87
2023/07/24 10:43:06;;;;;;;1.90;1.55;;;;;;;33.97;43.83;99294.00;6182186;23;20011;-86
2023/07/24 10:45:39;;;;;;;1.15;1.05;;;;;;;33.90;44.46;99276.97;6155684;23;20017;-87
2023/07/24 10:48:05;;;;;;;1.88;1.77;;;;;;;33.87;43.83;99278.97;6181500;23;20023;-87
2023/07/24 10:50:41;;;;;;;5.32;1.77;;;;;;;34.00;43.71;99271.88;6180681;23;20093;-86
2023/07/24 10:53:06;;;;;;;1.55;1.45;;;;;;;34.12;43.51;99272.69;6181960;23;20345;-86
2023/07/24 10:55:32;;;;;;;3.00;2.03;;;;;;;33.86;42.99;99262.31;6182048;23;20092;-87
2023/07/24 10:57:57;;;;;;;1.23;1.13;;;;;;;33.96;45.42;99260.88;6181258;23;20424;-87
2023/07/24 11:00:23;;;;;;;2.20;1.75;;;;;;;34.22;44.01;99252.44;6181685;23;20422;-87
2023/07/24 11:02:49;;;;;;;1.00;1.00;;;;;;;34.29;41.20;99260.13;6181437;23;20013;-87
2023/07/24 22:39:20;;;;;;;0.30;0.22;;;;;;;22.07;100.00;98872.53;6180001;23;20128;-89
2023/07/24 22:41:45;;;;;;;1.90;1.08;;;;;;;22.16;100.00;98885.47;6155335;23;20037;-89
2023/07/24 22:44:11;;;;;;;4.20;0.75;;;;;;;21.98;100.00;98881.44;6130493;23;20002;-88
2023/07/24 22:46:36;;;;;;;0.17;0.17;;;;;;;21.86;100.00;98899.88;6153312;23;20032;-88
2023/07/24 22:49:02;;;;;;;0.65;0.60;;;;;;;21.96;100.00;98895.31;6103694;23;20016;-88
2023/07/24 22:51:27;;;;;;;0.57;0.57;;;;;;;21.87;100.00;98873.16;6154137;23;20017;-89
2023/07/24 22:53:54;;;;;;;0.52;0.52;;;;;;;21.92;100.00;98880.78;6130933;23;20013;-89
2023/07/24 22:56:20;;;;;;;6.03;0.85;;;;;;;21.90;100.00;98908.00;6154666;23;20468;-90
2023/07/24 22:59:19;;;;;;;0.40;0.40;;;;;;;21.81;100.00;98903.53;6130471;23;20303;-89